createdAt,value
2023-03-30T00:01:57.042Z,3.00
2023-03-30T00:04:18.143Z,3.53
2023-03-30T00:06:38.696Z,2.78
2023-03-30T00:08:59.307Z,3.28
2023-03-30T00:11:22.520Z,3.65
2023-03-30T00:13:43.321Z,2.97
2023-03-30T00:16:04.272Z,3.67
2023-03-30T00:18:25.794Z,3.90
2023-03-30T00:20:48.642Z,4.68
2023-03-30T00:23:09.112Z,4.05
2023-03-30T00:25:29.068Z,3.38
2023-03-30T00:27:49.275Z,3.13
2023-03-30T00:30:19.233Z,3.88
2023-03-30T00:32:39.644Z,3.92
2023-03-30T00:35:00.698Z,4.82
2023-03-30T00:37:20.869Z,4.03
2023-03-30T00:39:41.399Z,3.78
2023-03-30T00:42:01.691Z,3.78
2023-03-30T00:44:40.731Z,4.10
2023-03-30T00:47:01.131Z,4.25
2023-03-30T00:49:21.403Z,4.93
2023-03-30T00:51:42.675Z,4.25
2023-03-30T00:54:07.270Z,4.03
2023-03-30T00:56:29.433Z,4.32
2023-03-30T00:58:50.281Z,4.15
2023-03-30T01:01:11.398Z,4.15
2023-03-30T01:03:33.111Z,4.38
2023-03-30T01:05:54.506Z,3.65
2023-03-30T01:08:16.308Z,3.92
2023-03-30T01:10:36.321Z,4.00
2023-03-30T01:12:56.591Z,4.72
2023-03-30T01:15:17.089Z,4.70
2023-03-30T01:17:49.397Z,6.38
2023-03-30T01:20:14.053Z,3.55
2023-03-30T01:22:52.892Z,4.88
2023-03-30T01:25:33.415Z,4.03
2023-03-30T01:28:04.617Z,4.65
2023-03-30T01:30:40.369Z,4.75
2023-03-30T01:33:03.882Z,4.57
2023-03-30T01:37:56.096Z,4.10
2023-03-30T01:40:31.643Z,5.15
2023-03-30T01:43:14.964Z,4.63
2023-03-30T01:45:43.905Z,5.03
2023-03-30T01:48:08.759Z,3.50
2023-03-30T01:50:37.420Z,5.43
2023-03-30T01:52:58.290Z,5.85
2023-03-30T01:55:20.387Z,5.40
2023-03-30T01:57:45.690Z,4.13
2023-03-30T02:00:15.108Z,4.07
2023-03-30T02:02:36.338Z,5.00
2023-03-30T02:04:59.544Z,4.57
2023-03-30T02:07:23.223Z,4.22
2023-03-30T02:09:45.738Z,5.18
2023-03-30T02:12:07.057Z,4.25
2023-03-30T02:14:30.344Z,3.95
2023-03-30T02:16:51.786Z,3.45
2023-03-30T02:19:12.279Z,4.70
2023-03-30T02:21:32.678Z,4.03
2023-03-30T02:23:53.511Z,4.82
2023-03-30T02:26:14.725Z,4.20
2023-03-30T02:28:35.074Z,4.40
2023-03-30T02:30:55.100Z,5.10
2023-03-30T02:33:38.596Z,4.55
2023-03-30T02:36:17.214Z,5.38
2023-03-30T02:38:40.317Z,4.38
2023-03-30T02:41:00.700Z,4.03
2023-03-30T02:43:24.313Z,3.50
2023-03-30T02:45:52.752Z,3.67
2023-03-30T02:48:25.540Z,3.30
2023-03-30T02:51:09.201Z,4.63
2023-03-30T02:55:55.758Z,4.75
2023-03-30T02:58:19.766Z,4.68
2023-03-30T03:00:54.040Z,4.18
2023-03-30T03:03:17.303Z,3.40
2023-03-30T03:05:37.788Z,5.65
2023-03-30T03:07:57.932Z,3.92
2023-03-30T03:10:18.222Z,4.45
2023-03-30T03:12:38.703Z,5.82
2023-03-30T03:15:01.293Z,5.82
2023-03-30T03:17:21.762Z,6.43
2023-03-30T03:19:41.838Z,4.80
2023-03-30T03:22:02.025Z,3.97
2023-03-30T03:24:22.591Z,5.88
2023-03-30T03:26:43.453Z,4.28
2023-03-30T03:29:03.592Z,4.55
2023-03-30T03:31:23.823Z,5.32
2023-03-30T03:33:43.912Z,6.38
2023-03-30T03:36:05.115Z,5.78
2023-03-30T03:38:25.712Z,4.72
2023-03-30T03:40:49.735Z,3.72
2023-03-30T03:43:09.900Z,4.53
2023-03-30T03:45:30.231Z,4.78
2023-03-30T03:47:51.253Z,5.25
2023-03-30T03:50:11.465Z,3.60
2023-03-30T03:52:31.516Z,4.80
2023-03-30T03:54:51.733Z,4.82
2023-03-30T03:57:12.466Z,3.45
2023-03-30T03:59:32.931Z,3.58
2023-03-30T04:01:53.291Z,3.38
2023-03-30T04:04:13.606Z,4.03
2023-03-30T04:06:33.897Z,3.03
2023-03-30T04:08:54.128Z,3.35
2023-03-30T04:11:14.671Z,4.32
2023-03-30T04:13:35.730Z,3.80
2023-03-30T04:15:56.151Z,3.15
2023-03-30T04:18:16.367Z,3.80
2023-03-30T04:20:36.795Z,4.20
2023-03-30T04:22:56.981Z,4.90
2023-03-30T04:25:17.418Z,4.38
2023-03-30T04:27:38.023Z,4.60
2023-03-30T04:29:57.997Z,4.65
2023-03-30T04:32:21.092Z,3.65
2023-03-30T04:34:48.815Z,4.20
2023-03-30T04:37:09.730Z,4.35
2023-03-30T04:39:30.190Z,4.57
2023-03-30T04:41:53.525Z,3.60
2023-03-30T04:44:13.606Z,4.38
2023-03-30T04:46:33.739Z,5.10
2023-03-30T04:48:53.684Z,5.03
2023-03-30T04:51:13.806Z,4.13
2023-03-30T04:53:33.873Z,3.97
2023-03-30T04:55:53.942Z,4.38
2023-03-30T04:58:14.468Z,4.13
2023-03-30T05:00:35.008Z,4.72
2023-03-30T05:02:55.161Z,4.18
2023-03-30T05:05:15.297Z,4.57
2023-03-30T05:07:35.447Z,4.22
2023-03-30T05:09:55.613Z,4.57
2023-03-30T05:12:16.017Z,4.97
2023-03-30T05:14:35.965Z,5.68
2023-03-30T05:16:57.994Z,6.53
2023-03-30T05:19:18.380Z,4.45
2023-03-30T05:21:38.487Z,5.22
2023-03-30T05:23:58.911Z,8.10
2023-03-30T05:26:19.304Z,6.40
2023-03-30T05:28:39.686Z,6.75
2023-03-30T05:30:59.662Z,5.50
2023-03-30T05:33:20.347Z,4.22
2023-03-30T05:35:40.601Z,3.67
2023-03-30T05:38:00.836Z,3.88
2023-03-30T05:40:21.283Z,3.90
2023-03-30T05:42:41.626Z,4.00
2023-03-30T05:45:02.180Z,4.50
2023-03-30T05:47:24.412Z,3.55
2023-03-30T05:49:44.702Z,5.82
2023-03-30T05:52:05.050Z,4.57
2023-03-30T05:54:26.700Z,5.68
2023-03-30T05:56:46.692Z,5.13
2023-03-30T05:59:07.147Z,4.57
2023-03-30T06:01:27.023Z,4.50
2023-03-30T06:03:47.691Z,3.97
2023-03-30T06:06:08.627Z,4.82
2023-03-30T06:08:28.985Z,4.90
2023-03-30T06:10:56.007Z,4.75
2023-03-30T06:13:16.137Z,4.38
2023-03-30T06:15:36.301Z,5.07
2023-03-30T06:17:58.476Z,5.60
2023-03-30T06:20:20.973Z,4.80
2023-03-30T06:22:41.499Z,5.13
2023-03-30T06:25:01.417Z,6.13
2023-03-30T06:27:21.480Z,4.82
2023-03-30T06:29:41.573Z,5.35
2023-03-30T06:32:02.910Z,3.55
2023-03-30T06:34:23.047Z,4.35
2023-03-30T06:36:44.852Z,4.55
2023-03-30T06:39:06.674Z,3.50
2023-03-30T06:41:27.554Z,4.07
2023-03-30T06:43:47.609Z,4.90
2023-03-30T06:46:08.415Z,5.55
2023-03-30T06:48:28.698Z,5.25
2023-03-30T06:50:48.897Z,5.18
2023-03-30T06:53:09.065Z,3.88
2023-03-30T06:55:29.230Z,4.53
2023-03-30T06:57:49.356Z,4.90
2023-03-30T07:00:13.593Z,4.63
2023-03-30T07:02:33.846Z,3.50
2023-03-30T07:04:54.147Z,4.13
2023-03-30T07:07:14.355Z,4.93
2023-03-30T07:09:35.166Z,4.50
2023-03-30T07:11:56.578Z,4.40
2023-03-30T07:14:17.247Z,4.88
2023-03-30T07:16:37.813Z,5.22
2023-03-30T07:18:58.118Z,5.30
2023-03-30T07:21:18.882Z,5.20
2023-03-30T07:23:38.821Z,6.72
2023-03-30T07:25:58.981Z,5.75
2023-03-30T07:28:19.354Z,3.25
2023-03-30T07:30:39.387Z,4.60
2023-03-30T07:32:59.522Z,4.95
2023-03-30T07:35:19.638Z,5.82
2023-03-30T07:37:39.890Z,5.15
2023-03-30T07:40:00.492Z,3.78
2023-03-30T07:42:20.599Z,3.45
2023-03-30T07:44:40.805Z,3.25
2023-03-30T07:47:03.472Z,3.60
2023-03-30T07:49:23.513Z,3.75
2023-03-30T07:51:43.723Z,3.20
2023-03-30T07:54:03.763Z,3.95
2023-03-30T07:56:23.927Z,4.38
2023-03-30T07:58:44.195Z,2.97
2023-03-30T08:01:04.293Z,4.82
2023-03-30T08:03:24.935Z,3.50
2023-03-30T08:05:52.140Z,4.47
2023-03-30T08:08:13.145Z,3.83
2023-03-30T08:10:33.844Z,3.50
2023-03-30T08:12:54.050Z,4.15
2023-03-30T08:15:14.042Z,3.83
2023-03-30T08:17:34.380Z,5.82
2023-03-30T08:19:55.694Z,4.05
2023-03-30T08:22:16.194Z,3.25
2023-03-30T08:24:36.586Z,2.70
2023-03-30T08:26:56.865Z,3.22
2023-03-30T08:29:17.951Z,3.08
2023-03-30T08:31:38.376Z,2.95
2023-03-30T08:34:03.649Z,3.40
2023-03-30T08:36:23.745Z,3.60
2023-03-30T08:38:44.674Z,3.58
2023-03-30T08:41:19.597Z,3.55
2023-03-30T08:43:57.765Z,3.03
2023-03-30T08:46:18.837Z,2.30
2023-03-30T08:48:41.937Z,2.97
2023-03-30T08:51:06.582Z,2.80
2023-03-30T08:53:28.526Z,3.10
2023-03-30T08:56:15.167Z,3.55
2023-03-30T08:58:55.874Z,3.72
2023-03-30T09:01:19.321Z,3.33
2023-03-30T09:03:45.621Z,4.50
2023-03-30T09:06:08.696Z,3.08
2023-03-30T09:08:31.310Z,4.43
2023-03-30T09:11:02.463Z,3.72
2023-03-30T09:13:25.002Z,3.50
2023-03-30T09:15:49.149Z,4.10
2023-03-30T09:18:25.435Z,2.60
2023-03-30T09:20:46.863Z,3.70
2023-03-30T09:23:14.920Z,2.63
2023-03-30T09:25:55.198Z,4.65
2023-03-30T09:28:17.454Z,3.47
2023-03-30T09:30:41.991Z,3.53
2023-03-30T09:33:06.937Z,2.35
2023-03-30T09:35:31.197Z,2.72
2023-03-30T09:37:51.614Z,2.80
2023-03-30T09:40:21.865Z,2.15
2023-03-30T09:42:52.444Z,2.10
2023-03-30T09:45:26.902Z,2.53
2023-03-30T09:47:47.113Z,2.65
2023-03-30T09:50:08.669Z,2.35
2023-03-30T09:52:29.877Z,3.30
2023-03-30T09:54:50.352Z,2.90
2023-03-30T09:57:32.587Z,3.35
2023-03-30T09:59:55.178Z,2.27
2023-03-30T10:02:15.843Z,2.10
2023-03-30T10:04:55.827Z,2.65
2023-03-30T10:07:22.051Z,2.47
2023-03-30T10:09:44.566Z,3.38
2023-03-30T10:12:05.820Z,3.83
2023-03-30T10:14:30.984Z,2.22
2023-03-30T10:16:51.371Z,2.03
2023-03-30T10:19:17.281Z,1.60
2023-03-30T10:21:38.995Z,2.88
2023-03-30T10:24:25.539Z,2.38
2023-03-30T10:26:46.262Z,2.15
2023-03-30T10:29:10.186Z,2.33
2023-03-30T10:31:31.258Z,1.98
2023-03-30T10:33:55.259Z,2.25
2023-03-30T10:36:16.563Z,2.25
2023-03-30T10:38:37.947Z,1.67
2023-03-30T10:41:02.123Z,1.85
2023-03-30T10:43:24.680Z,2.10
2023-03-30T10:45:57.218Z,1.75
2023-03-30T10:48:28.035Z,1.77
2023-03-30T10:51:14.648Z,1.60
2023-03-30T10:53:35.158Z,1.80
2023-03-30T10:55:55.217Z,1.65
2023-03-30T10:58:28.059Z,2.22
2023-03-30T11:00:54.535Z,1.30
2023-03-30T11:03:20.699Z,1.40
2023-03-30T11:05:43.212Z,1.65
2023-03-30T11:08:07.523Z,1.50
2023-03-30T11:10:30.862Z,1.90
2023-03-30T11:12:54.605Z,1.98
2023-03-30T11:15:19.371Z,1.85
2023-03-30T11:17:42.990Z,1.30
2023-03-30T11:20:23.403Z,1.50
2023-03-30T11:22:48.293Z,1.83
2023-03-30T11:25:28.142Z,1.30
2023-03-30T11:27:56.184Z,1.75
2023-03-30T11:30:26.768Z,1.52
2023-03-30T11:32:48.370Z,1.70
2023-03-30T11:35:18.963Z,2.00
2023-03-30T11:37:59.874Z,1.60
2023-03-30T11:40:27.035Z,1.60
2023-03-30T11:42:47.536Z,2.05
2023-03-30T11:45:26.662Z,1.70
2023-03-30T11:47:56.524Z,2.40
2023-03-30T11:50:39.691Z,1.75
2023-03-30T11:53:18.528Z,1.70
2023-03-30T11:55:41.709Z,1.75
2023-03-30T11:58:07.791Z,1.33
2023-03-30T12:00:31.731Z,1.42
2023-03-30T12:02:55.363Z,1.40
2023-03-30T12:05:38.942Z,1.20
2023-03-30T12:08:08.034Z,1.10
2023-03-30T12:10:28.120Z,1.30
2023-03-30T12:12:53.287Z,1.10
2023-03-30T12:15:32.039Z,1.40
2023-03-30T12:17:54.131Z,1.33
2023-03-30T12:20:20.821Z,1.83
2023-03-30T12:22:40.753Z,1.92
2023-03-30T12:25:03.151Z,1.70
2023-03-30T12:27:26.579Z,1.15
2023-03-30T12:30:02.261Z,1.02
2023-03-30T12:32:28.970Z,1.17
2023-03-30T12:34:49.293Z,1.13
2023-03-30T12:37:21.685Z,1.50
2023-03-30T12:39:44.155Z,1.30
2023-03-30T12:42:05.204Z,1.45
2023-03-30T12:44:25.334Z,1.20
2023-03-30T12:46:57.728Z,1.10
2023-03-30T12:49:40.731Z,1.10
2023-03-30T12:52:13.020Z,1.83
2023-03-30T12:54:46.773Z,1.10
2023-03-30T12:57:10.397Z,1.90
2023-03-30T12:59:49.474Z,1.17
2023-03-30T13:02:28.682Z,1.58
2023-03-30T13:04:49.822Z,1.20
2023-03-30T13:07:15.475Z,1.10
2023-03-30T13:09:55.786Z,1.65
2023-03-30T13:12:31.428Z,2.85
2023-03-30T13:14:59.354Z,1.20
2023-03-30T13:17:19.807Z,1.73
2023-03-30T13:19:48.263Z,1.40
2023-03-30T13:22:11.522Z,1.80
2023-03-30T13:24:31.608Z,1.50
2023-03-30T13:26:53.315Z,1.00
2023-03-30T13:29:16.339Z,1.40
2023-03-30T13:31:55.256Z,1.55
2023-03-30T13:34:22.157Z,1.52
2023-03-30T13:36:52.518Z,1.58
2023-03-30T13:39:17.733Z,1.40
2023-03-30T13:41:37.831Z,1.58
2023-03-30T13:43:57.965Z,1.75
2023-03-30T13:46:23.694Z,1.30
2023-03-30T13:48:53.196Z,1.85
2023-03-30T13:51:16.270Z,1.40
2023-03-30T13:53:42.421Z,1.50
2023-03-30T13:56:06.475Z,1.38
2023-03-30T13:58:32.452Z,1.20
2023-03-30T14:00:54.442Z,1.48
2023-03-30T14:03:26.902Z,1.23
2023-03-30T14:05:47.067Z,1.75
2023-03-30T14:08:09.620Z,1.30
2023-03-30T14:10:30.161Z,1.40
2023-03-30T14:12:55.327Z,1.75
2023-03-30T14:15:21.442Z,1.67
2023-03-30T14:17:41.620Z,1.20
2023-03-30T14:20:08.495Z,1.20
2023-03-30T14:22:30.300Z,1.70
2023-03-30T14:24:56.787Z,1.73
2023-03-30T14:27:16.893Z,1.60
2023-03-30T14:29:43.685Z,1.50
2023-03-30T14:32:09.278Z,1.58
2023-03-30T14:34:31.756Z,1.38
2023-03-30T14:36:52.055Z,1.45
2023-03-30T14:39:11.942Z,1.30
2023-03-30T14:41:32.046Z,1.65
2023-03-30T14:43:57.143Z,1.55
2023-03-30T14:46:17.830Z,1.40
2023-03-30T14:48:41.067Z,1.58
2023-03-30T14:51:02.297Z,1.52
2023-03-30T14:53:27.128Z,1.50
2023-03-30T14:55:47.787Z,1.52
2023-03-30T14:58:11.189Z,1.92
2023-03-30T15:00:33.100Z,2.05
2023-03-30T15:02:55.183Z,1.30
2023-03-30T15:05:16.936Z,1.85
2023-03-30T15:07:37.644Z,1.60
2023-03-30T15:09:59.151Z,5.38
2023-03-30T15:12:28.655Z,1.40
2023-03-30T15:14:49.447Z,1.50
2023-03-30T15:17:11.484Z,1.60
2023-03-30T15:19:32.745Z,1.58
2023-03-30T15:21:54.399Z,1.27
2023-03-30T15:24:16.797Z,1.25
2023-03-30T15:26:41.923Z,1.30
2023-03-30T15:29:03.928Z,1.48
2023-03-30T15:31:25.780Z,2.40
2023-03-30T15:33:48.966Z,2.28
2023-03-30T15:36:12.650Z,1.50
2023-03-30T15:38:43.002Z,1.95
2023-03-30T15:41:03.898Z,1.63
2023-03-30T15:43:26.418Z,1.85
2023-03-30T15:45:57.639Z,1.42
2023-03-30T15:48:19.419Z,1.63
2023-03-30T15:50:42.097Z,1.20
2023-03-30T15:53:03.080Z,1.20
2023-03-30T15:55:27.917Z,2.90
2023-03-30T15:57:48.902Z,1.70
2023-03-30T16:00:14.249Z,1.70
2023-03-30T16:02:40.283Z,1.30
2023-03-30T16:05:04.633Z,1.63
2023-03-30T16:07:25.849Z,1.65
2023-03-30T16:09:46.451Z,1.75
2023-03-30T16:12:06.471Z,1.25
2023-03-30T16:14:26.790Z,1.80
2023-03-30T16:16:47.452Z,2.08
2023-03-30T16:19:11.602Z,2.42
2023-03-30T16:21:31.998Z,1.80
2023-03-30T16:23:52.386Z,1.98
2023-03-30T16:26:12.409Z,1.30
2023-03-30T16:28:32.590Z,1.50
2023-03-30T16:30:53.727Z,1.67
2023-03-30T16:33:13.988Z,2.05
2023-03-30T16:35:34.101Z,2.67
2023-03-30T16:37:54.383Z,1.98
2023-03-30T16:40:37.986Z,2.92
2023-03-30T16:42:58.729Z,1.30
2023-03-30T16:45:19.083Z,1.90
2023-03-30T16:47:39.349Z,1.60
2023-03-30T16:49:59.893Z,2.83
2023-03-30T16:52:19.794Z,1.75
2023-03-30T16:54:40.013Z,2.40
2023-03-30T16:57:03.364Z,1.98
2023-03-30T16:59:25.151Z,3.03
2023-03-30T17:01:45.574Z,1.92
2023-03-30T17:04:08.885Z,2.03
2023-03-30T17:06:29.388Z,1.52
2023-03-30T17:08:49.892Z,2.08
2023-03-30T17:11:12.689Z,1.88
2023-03-30T17:13:33.354Z,2.33
2023-03-30T17:15:54.006Z,5.95
2023-03-30T17:18:24.315Z,2.72
2023-03-30T17:20:47.556Z,4.32
2023-03-30T17:23:09.526Z,2.33
2023-03-30T17:25:29.822Z,2.25
2023-03-30T17:27:50.815Z,2.15
2023-03-30T17:30:31.126Z,2.30
2023-03-30T17:32:54.370Z,3.22
2023-03-30T17:35:14.774Z,3.08
2023-03-30T17:37:34.890Z,2.65
2023-03-30T17:39:55.510Z,4.05
2023-03-30T17:42:15.778Z,3.50
2023-03-30T17:44:36.393Z,2.60
2023-03-30T17:46:56.826Z,2.47
2023-03-30T17:49:16.973Z,3.13
2023-03-30T17:51:37.026Z,3.28
2023-03-30T17:53:57.336Z,3.75
2023-03-30T17:56:17.592Z,3.92
2023-03-30T17:58:37.772Z,2.83
2023-03-30T18:00:58.461Z,2.25
2023-03-30T18:03:20.347Z,2.22
2023-03-30T18:05:40.830Z,2.53
2023-03-30T18:08:01.398Z,2.97
2023-03-30T18:10:26.580Z,2.92
2023-03-30T18:12:46.760Z,2.97
2023-03-30T18:15:06.915Z,2.25
2023-03-30T18:17:27.268Z,3.47
2023-03-30T18:19:47.471Z,3.35
2023-03-30T18:22:07.594Z,2.40
2023-03-30T18:24:28.210Z,2.50
2023-03-30T18:26:48.448Z,2.40
2023-03-30T18:29:21.435Z,3.05
2023-03-30T18:31:41.362Z,4.57
2023-03-30T18:34:01.493Z,3.88
2023-03-30T18:36:21.951Z,4.13
2023-03-30T18:38:42.628Z,3.40
2023-03-30T18:41:02.935Z,3.38
2023-03-30T18:43:23.108Z,3.70
2023-03-30T18:45:45.378Z,3.17
2023-03-30T18:48:06.725Z,3.80
2023-03-30T18:50:33.817Z,3.97
2023-03-30T18:52:53.962Z,3.10
2023-03-30T18:55:14.888Z,3.60
2023-03-30T18:57:35.410Z,3.70
2023-03-30T18:59:55.788Z,4.07
2023-03-30T19:02:15.719Z,2.90
2023-03-30T19:04:36.946Z,2.90
2023-03-30T19:06:58.732Z,3.75
2023-03-30T19:09:24.761Z,3.90
2023-03-30T19:11:50.296Z,2.42
2023-03-30T19:14:10.677Z,3.05
2023-03-30T19:16:31.111Z,3.17
2023-03-30T19:18:52.943Z,3.33
2023-03-30T19:21:17.136Z,3.30
2023-03-30T19:23:37.488Z,3.88
2023-03-30T19:25:57.575Z,3.13
2023-03-30T19:28:17.686Z,2.72
2023-03-30T19:30:39.579Z,3.05
2023-03-30T19:33:01.541Z,4.32
2023-03-30T19:35:22.622Z,3.95
2023-03-30T19:37:43.597Z,3.50
2023-03-30T19:40:05.571Z,3.10
2023-03-30T19:42:28.017Z,4.70
2023-03-30T19:44:48.001Z,3.95
2023-03-30T19:47:08.270Z,3.15
2023-03-30T19:49:28.575Z,3.00
2023-03-30T19:51:48.892Z,3.72
2023-03-30T19:54:08.916Z,3.45
2023-03-30T19:56:29.215Z,3.80
2023-03-30T19:58:49.491Z,4.15
2023-03-30T20:01:10.091Z,3.40
2023-03-30T20:03:30.638Z,3.00
2023-03-30T20:05:51.090Z,3.38
2023-03-30T20:08:22.968Z,2.90
2023-03-30T20:10:47.646Z,2.92
2023-03-30T20:13:07.740Z,3.53
2023-03-30T20:15:27.861Z,2.67
2023-03-30T20:17:48.119Z,3.10
2023-03-30T20:20:11.719Z,3.17
2023-03-30T20:22:31.825Z,3.80
2023-03-30T20:24:52.077Z,5.13
2023-03-30T20:27:12.135Z,3.97
2023-03-30T20:29:32.297Z,3.25
2023-03-30T20:31:52.208Z,5.00
2023-03-30T20:34:14.399Z,3.90
2023-03-30T20:36:34.665Z,4.28
2023-03-30T20:38:58.617Z,3.58
2023-03-30T20:41:22.032Z,3.90
2023-03-30T20:43:56.246Z,4.00
2023-03-30T20:46:19.007Z,3.65
2023-03-30T20:48:40.081Z,3.95
2023-03-30T20:51:01.259Z,4.05
2023-03-30T20:53:22.316Z,4.03
2023-03-30T20:55:42.880Z,3.63
2023-03-30T20:58:02.756Z,4.50
2023-03-30T21:00:23.470Z,4.10
2023-03-30T21:02:43.737Z,3.70
2023-03-30T21:05:03.930Z,4.13
2023-03-30T21:07:24.867Z,2.83
2023-03-30T21:09:46.611Z,5.45
2023-03-30T21:12:07.669Z,3.20
2023-03-30T21:14:27.637Z,4.28
2023-03-30T21:16:47.828Z,3.75
2023-03-30T21:19:08.409Z,3.80
2023-03-30T21:21:28.587Z,4.97
2023-03-30T21:23:48.813Z,3.85
2023-03-30T21:26:09.039Z,4.85
2023-03-30T21:28:29.593Z,4.95
2023-03-30T21:30:49.933Z,3.47
2023-03-30T21:33:10.515Z,3.65
2023-03-30T21:35:30.641Z,5.63
2023-03-30T21:37:50.727Z,3.90
2023-03-30T21:40:11.500Z,3.85
2023-03-30T21:42:33.580Z,4.13
2023-03-30T21:44:54.091Z,4.82
2023-03-30T21:47:15.940Z,3.67
2023-03-30T21:49:36.684Z,4.05
2023-03-30T21:51:57.100Z,4.35
2023-03-30T21:54:18.585Z,4.63
2023-03-30T21:56:38.924Z,4.60
2023-03-30T21:58:59.338Z,4.47
2023-03-30T22:01:21.074Z,3.63
2023-03-30T22:03:42.310Z,5.43
2023-03-30T22:06:04.838Z,3.97
2023-03-30T22:08:24.959Z,2.65
2023-03-30T22:10:45.177Z,4.50
2023-03-30T22:13:05.555Z,4.05
2023-03-30T22:15:25.976Z,3.75
2023-03-30T22:17:46.255Z,3.97
2023-03-30T22:20:06.742Z,3.22
2023-03-30T22:22:27.928Z,4.88
2023-03-30T22:24:48.085Z,6.50
2023-03-30T22:27:08.291Z,4.47
2023-03-30T22:29:28.182Z,5.05
2023-03-30T22:31:48.434Z,5.03
2023-03-30T22:34:08.811Z,3.22
2023-03-30T22:36:30.242Z,5.60
2023-03-30T22:38:51.020Z,4.20
2023-03-30T22:41:11.182Z,3.72
2023-03-30T22:43:31.991Z,3.55
2023-03-30T22:45:51.911Z,4.38
2023-03-30T22:48:11.975Z,4.40
2023-03-30T22:50:33.204Z,4.60
2023-03-30T22:52:54.176Z,3.83
2023-03-30T22:55:14.743Z,3.75
2023-03-30T22:57:34.965Z,3.63
2023-03-30T22:59:55.087Z,3.67
2023-03-30T23:02:16.001Z,3.80
2023-03-30T23:04:36.332Z,3.78
2023-03-30T23:06:56.828Z,4.30
2023-03-30T23:09:16.906Z,4.43
2023-03-30T23:11:37.129Z,3.00
2023-03-30T23:14:04.304Z,3.70
2023-03-30T23:16:24.443Z,4.13
2023-03-30T23:18:45.206Z,3.95
2023-03-30T23:21:06.909Z,3.67
2023-03-30T23:23:27.383Z,3.03
2023-03-30T23:25:51.355Z,4.00
2023-03-30T23:28:11.593Z,5.18
2023-03-30T23:30:32.167Z,3.20
2023-03-30T23:32:52.189Z,4.03
2023-03-30T23:35:12.417Z,3.83
2023-03-30T23:37:33.357Z,3.50
2023-03-30T23:39:53.389Z,3.92
2023-03-30T23:42:13.714Z,3.60
2023-03-30T23:44:33.896Z,4.00
2023-03-30T23:46:54.122Z,3.88
2023-03-30T23:49:14.220Z,4.63
2023-03-30T23:51:34.757Z,3.83
2023-03-30T23:53:56.981Z,4.10
2023-03-30T23:56:17.601Z,4.10
2023-03-30T23:58:38.689Z,5.20
